Time;durP1;ratioP1;P1;durP2;ratioP2;P2;SDS_P1;SDS_P2;PMS_P1;PMS_P2;Temp;Humidity;BMP_temperature;BMP_pressure;BME280_temperature;BME280_humidity;BME280_pressure;Samples;Min_cycle;Max_cycle;Signal;HPM_P1;HPM_P2
2022/03/04 00:00:37;;;;;;;16.63;8.35;;;-1.90;95.20;;;;;;2102068;28;20191;-70
2022/03/04 00:01:38;;;;;;;15.57;9.03;;;-1.90;95.00;;;;;;2088358;28;20298;-67
2022/03/04 00:02:39;;;;;;;16.43;9.10;;;-1.90;95.10;;;;;;2096869;28;20208;-68
2022/03/04 00:03:40;;;;;;;17.23;9.13;;;-1.90;94.90;;;;;;2097314;28;20179;-69
2022/03/04 00:04:40;;;;;;;18.53;9.17;;;-1.80;94.50;;;;;;2097128;28;20193;-68
2022/03/04 00:05:42;;;;;;;17.23;9.67;;;-1.90;94.40;;;;;;2096127;28;20695;-68
2022/03/04 00:06:42;;;;;;;17.10;9.68;;;-1.90;94.30;;;;;;2088624;28;20230;-68
2022/03/04 00:07:43;;;;;;;17.90;9.33;;;-1.90;94.30;;;;;;2096692;28;20202;-69
2022/03/04 00:08:44;;;;;;;16.97;8.77;;;-1.90;94.60;;;;;;2096971;28;20267;-67
2022/03/04 00:09:45;;;;;;;16.50;8.97;;;-1.90;94.50;;;;;;2096679;28;20187;-68
2022/03/04 00:10:45;;;;;;;16.60;8.73;;;-1.90;94.60;;;;;;2097441;28;20232;-68
2022/03/04 00:11:48;;;;;;;16.73;8.93;;;-1.90;94.60;;;;;;2096540;28;20187;-68
2022/03/04 00:12:48;;;;;;;16.13;8.52;;;-2.00;94.50;;;;;;2088823;28;20184;-69
2022/03/04 00:13:49;;;;;;;20.10;8.77;;;-2.00;94.50;;;;;;2096727;28;20692;-68
2022/03/04 00:14:50;;;;;;;15.77;8.60;;;-2.00;94.70;;;;;;2096799;28;20624;-68
2022/03/04 00:15:50;;;;;;;17.97;8.40;;;-2.00;94.60;;;;;;2091414;28;20195;-68
2022/03/04 00:16:53;;;;;;;14.80;8.27;;;-2.10;94.90;;;;;;2088506;28;20173;-68
2022/03/04 00:17:53;;;;;;;12.23;7.65;;;-2.10;95.00;;;;;;2088362;28;20756;-68
2022/03/04 00:19:07;;;;;;;15.53;9.20;;;-2.10;95.10;;;;;;2089115;28;20189;-69
2022/03/04 00:20:08;;;;;;;17.17;9.63;;;-2.10;95.30;;;;;;2089058;28;20242;-69
2022/03/04 00:21:09;;;;;;;20.00;9.13;;;-2.00;95.20;;;;;;2089225;28;20218;-68
2022/03/04 00:22:10;;;;;;;20.83;8.82;;;-2.10;95.00;;;;;;2089147;28;20172;-68
2022/03/04 00:23:10;;;;;;;16.07;8.90;;;-2.10;95.50;;;;;;2088480;28;20239;-69
2022/03/04 00:24:11;;;;;;;16.23;8.30;;;-2.10;95.50;;;;;;2088384;28;20227;-69
2022/03/04 00:25:12;;;;;;;15.77;8.68;;;-2.10;95.40;;;;;;2087907;28;20177;-69
2022/03/04 00:26:13;;;;;;;16.63;8.77;;;-2.10;95.50;;;;;;2088444;28;20177;-69
2022/03/04 00:27:14;;;;;;;14.90;7.67;;;-2.20;95.60;;;;;;2089177;28;20171;-69
2022/03/04 00:28:14;;;;;;;17.27;9.63;;;-2.20;96.00;;;;;;2093369;28;20597;-69
2022/03/04 00:29:16;;;;;;;17.33;8.97;;;-2.20;96.00;;;;;;2086225;28;20721;-69
2022/03/04 00:30:17;;;;;;;16.17;8.25;;;-2.20;95.70;;;;;;2088375;28;20270;-68
2022/03/04 00:31:17;;;;;;;19.48;9.57;;;-2.20;95.90;;;;;;2088525;28;20181;-68
2022/03/04 00:32:18;;;;;;;16.27;8.13;;;-2.20;96.10;;;;;;2093198;28;20209;-69
2022/03/04 00:33:19;;;;;;;19.60;8.50;;;-2.20;96.10;;;;;;2097446;28;20176;-68
2022/03/04 00:34:19;;;;;;;18.30;9.93;;;-2.20;96.00;;;;;;2096619;28;20819;-69
2022/03/04 00:35:20;;;;;;;17.50;8.30;;;-2.20;96.00;;;;;;2096097;28;20193;-68
2022/03/04 00:36:24;;;;;;;18.53;9.63;;;-2.20;95.70;;;;;;2096795;28;20184;-69
2022/03/04 00:37:25;;;;;;;15.85;7.82;;;-2.30;95.80;;;;;;2096573;28;20419;-69
2022/03/04 00:38:25;;;;;;;16.73;9.13;;;-2.30;95.90;;;;;;2097474;28;20184;-69
2022/03/04 00:39:26;;;;;;;19.47;9.00;;;-2.30;96.00;;;;;;2096657;28;20649;-69
2022/03/04 00:40:26;;;;;;;16.00;7.97;;;-2.30;95.80;;;;;;2096795;28;20660;-68
2022/03/04 00:41:27;;;;;;;20.07;8.97;;;-2.30;95.80;;;;;;2096612;28;20598;-69
2022/03/04 00:42:28;;;;;;;13.13;7.70;;;-2.30;95.90;;;;;;2096940;28;20180;-69
2022/03/04 00:43:28;;;;;;;17.27;8.97;;;-2.30;96.00;;;;;;2097337;28;20183;-69
2022/03/04 00:44:29;;;;;;;14.37;8.17;;;-2.30;95.90;;;;;;2097499;28;20185;-69
2022/03/04 00:45:30;;;;;;;15.87;7.63;;;-2.40;96.00;;;;;;2096575;28;20212;-68
2022/03/04 00:46:31;;;;;;;15.50;8.37;;;-2.40;96.10;;;;;;2097356;28;20186;-68
2022/03/04 00:47:31;;;;;;;17.83;9.83;;;-2.40;96.00;;;;;;2097215;28;20228;-68
2022/03/04 00:48:32;;;;;;;14.57;7.93;;;-2.40;96.70;;;;;;2097098;28;20647;-69
2022/03/04 00:49:34;;;;;;;16.43;7.80;;;-2.40;96.50;;;;;;2088292;28;20189;-69
2022/03/04 00:50:34;;;;;;;13.75;7.68;;;-2.40;96.70;;;;;;2088535;28;20184;-68
2022/03/04 00:51:35;;;;;;;15.33;7.80;;;-2.30;96.40;;;;;;2096523;28;20180;-68
2022/03/04 00:52:36;;;;;;;17.03;8.60;;;-2.30;96.10;;;;;;2104991;28;20175;-68
2022/03/04 00:53:37;;;;;;;14.00;8.07;;;-2.40;95.90;;;;;;2097204;28;20178;-69
2022/03/04 00:54:38;;;;;;;18.73;8.88;;;-2.40;95.90;;;;;;2096693;28;20698;-69
2022/03/04 00:55:39;;;;;;;15.57;8.07;;;-2.30;95.90;;;;;;2095914;28;20251;-69
2022/03/04 00:56:41;;;;;;;16.43;8.27;;;-2.40;95.80;;;;;;2097322;28;20194;-69
2022/03/04 00:57:42;;;;;;;13.70;8.05;;;-2.40;95.90;;;;;;2096539;28;20275;-69
2022/03/04 00:58:42;;;;;;;16.87;8.47;;;-2.40;96.30;;;;;;2088583;28;20188;-69
2022/03/04 00:59:43;;;;;;;16.97;8.33;;;-2.50;96.70;;;;;;2088245;28;20643;-70
2022/03/04 01:00:44;;;;;;;18.13;9.10;;;-2.50;96.40;;;;;;2096772;28;20525;-70
2022/03/04 01:01:44;;;;;;;13.87;7.83;;;-2.50;96.40;;;;;;2096398;28;20192;-70
2022/03/04 01:02:45;;;;;;;16.63;8.93;;;-2.50;96.50;;;;;;2096845;28;20183;-69
2022/03/04 01:03:46;;;;;;;14.77;8.47;;;-2.50;96.70;;;;;;2097127;28;20224;-70
2022/03/04 01:04:46;;;;;;;16.73;8.20;;;-2.60;96.90;;;;;;2097234;28;20236;-69
2022/03/04 01:05:47;;;;;;;16.40;8.10;;;-2.50;96.90;;;;;;2096651;28;20213;-69
2022/03/04 01:06:48;;;;;;;14.20;8.17;;;-2.50;96.70;;;;;;2096576;28;20187;-69
2022/03/04 01:07:48;;;;;;;17.40;8.53;;;-2.60;96.60;;;;;;2088417;28;20258;-69
2022/03/04 01:08:49;;;;;;;15.63;9.07;;;-2.60;96.90;;;;;;2096840;28;20527;-70
2022/03/04 01:09:50;;;;;;;14.97;8.67;;;-2.60;97.20;;;;;;2096467;28;20226;-69
2022/03/04 01:10:50;;;;;;;16.53;8.53;;;-2.60;96.80;;;;;;2096618;28;20716;-69
2022/03/04 01:11:51;;;;;;;14.83;8.10;;;-2.60;97.10;;;;;;2088145;28;20756;-69
2022/03/04 01:12:52;;;;;;;16.67;9.40;;;-2.60;97.00;;;;;;2096508;28;20190;-69
2022/03/04 01:13:53;;;;;;;15.27;8.00;;;-2.60;97.20;;;;;;2097137;28;20196;-69
2022/03/04 01:14:55;;;;;;;15.20;7.27;;;-2.60;96.90;;;;;;2096441;28;20181;-69
2022/03/04 01:15:56;;;;;;;14.40;7.93;;;-2.70;96.90;;;;;;2087814;28;20484;-69
2022/03/04 01:16:57;;;;;;;14.18;7.90;;;-2.60;97.20;;;;;;2089934;28;20345;-69
2022/03/04 01:17:57;;;;;;;14.97;8.13;;;-2.60;97.00;;;;;;2098149;28;20210;-70
2022/03/04 01:18:58;;;;;;;22.13;9.30;;;-2.60;96.90;;;;;;2098768;28;20493;-69
2022/03/04 01:19:59;;;;;;;17.27;8.17;;;-2.70;97.10;;;;;;2098225;28;20675;-70
2022/03/04 01:21:00;;;;;;;18.30;8.57;;;-2.70;96.80;;;;;;2089908;28;20690;-69
2022/03/04 01:22:00;;;;;;;20.13;9.30;;;-2.70;96.80;;;;;;2089980;28;20230;-69
2022/03/04 01:23:01;;;;;;;15.20;8.07;;;-2.70;96.90;;;;;;2089949;28;20658;-70
2022/03/04 01:24:02;;;;;;;12.97;7.53;;;-2.70;96.70;;;;;;2098216;28;20192;-69
2022/03/04 01:25:04;;;;;;;14.80;7.35;;;-2.80;97.50;;;;;;2098653;28;20197;-69
2022/03/04 01:26:05;;;;;;;15.55;7.85;;;-2.80;98.00;;;;;;2097615;28;20247;-69
2022/03/04 01:27:06;;;;;;;26.00;8.80;;;-2.80;97.30;;;;;;2097941;28;20172;-70
2022/03/04 01:28:06;;;;;;;17.37;8.60;;;-2.80;97.40;;;;;;2098050;28;20202;-70
2022/03/04 01:29:07;;;;;;;14.33;8.20;;;-2.80;97.30;;;;;;2089663;28;20648;-70
2022/03/04 01:30:09;;;;;;;15.73;7.77;;;-2.80;97.80;;;;;;2098134;28;20183;-69
2022/03/04 01:31:12;;;;;;;13.27;7.88;;;-2.80;97.90;;;;;;2098662;28;20880;-69
2022/03/04 01:32:13;;;;;;;15.27;8.90;;;-2.80;97.50;;;;;;2098664;28;20562;-69
2022/03/04 01:33:13;;;;;;;12.37;7.77;;;-2.80;97.90;;;;;;2098016;28;20172;-69
2022/03/04 01:34:14;;;;;;;14.30;7.90;;;-2.80;97.70;;;;;;2089864;28;20177;-69
2022/03/04 01:35:15;;;;;;;14.63;8.30;;;-2.90;98.00;;;;;;2097395;28;20871;-69
2022/03/04 01:36:16;;;;;;;16.92;8.63;;;-2.90;98.20;;;;;;2098056;28;20204;-69
2022/03/04 01:37:17;;;;;;;14.52;7.90;;;-2.90;98.30;;;;;;2098028;28;20176;-69
2022/03/04 01:38:18;;;;;;;15.47;7.70;;;-2.90;98.70;;;;;;2098020;28;20202;-69
2022/03/04 01:39:18;;;;;;;15.27;7.40;;;-2.90;98.50;;;;;;2089719;28;20176;-69
2022/03/04 01:40:19;;;;;;;13.57;7.20;;;-2.90;98.50;;;;;;2089810;28;20173;-72
2022/03/04 01:41:20;;;;;;;18.10;8.40;;;-2.80;98.40;;;;;;2097851;28;20179;-69
2022/03/04 01:42:21;;;;;;;15.30;8.20;;;-2.80;98.20;;;;;;2098726;28;20188;-69
2022/03/04 01:43:21;;;;;;;14.02;7.95;;;-2.90;98.20;;;;;;2097849;28;20179;-69
2022/03/04 01:44:22;;;;;;;15.17;8.77;;;-2.90;98.10;;;;;;2089807;28;20709;-68
2022/03/04 01:45:23;;;;;;;15.03;7.77;;;-2.80;98.20;;;;;;2097202;28;20228;-68
2022/03/04 01:46:29;;;;;;;13.63;7.03;;;-2.80;97.80;;;;;;2098016;28;20223;-68
2022/03/04 01:47:29;;;;;;;17.17;8.32;;;-2.80;97.90;;;;;;2097903;28;20168;-69
2022/03/04 01:48:30;;;;;;;14.47;7.83;;;-2.80;97.60;;;;;;2097945;28;20701;-69
2022/03/04 01:49:32;;;;;;;17.97;8.70;;;-2.80;97.70;;;;;;2097891;28;20176;-69
2022/03/04 01:50:33;;;;;;;16.42;8.88;;;-2.80;97.70;;;;;;2098036;28;21040;-69
2022/03/04 01:51:34;;;;;;;15.73;8.30;;;-2.90;97.60;;;;;;2097854;28;20279;-69
2022/03/04 01:52:34;;;;;;;17.30;8.43;;;-2.90;97.70;;;;;;2098585;28;20313;-69
2022/03/04 01:53:36;;;;;;;18.63;9.07;;;-2.90;97.90;;;;;;2098526;28;20799;-69
2022/03/04 01:54:37;;;;;;;17.27;8.85;;;-3.00;98.00;;;;;;2097970;28;20199;-69
2022/03/04 01:55:37;;;;;;;15.43;7.43;;;-3.00;98.00;;;;;;2097418;28;20217;-69
2022/03/04 01:56:38;;;;;;;15.40;8.13;;;-3.00;97.90;;;;;;2098423;28;20266;-70
2022/03/04 01:57:39;;;;;;;18.00;7.97;;;-3.10;98.20;;;;;;2097490;28;20732;-69
2022/03/04 01:58:40;;;;;;;16.27;8.83;;;-3.10;98.20;;;;;;2097931;28;20244;-69
2022/03/04 01:59:40;;;;;;;15.73;8.83;;;-3.10;98.80;;;;;;2098500;28;20934;-69
2022/03/04 02:00:41;;;;;;;15.87;7.90;;;-3.10;98.80;;;;;;2097730;28;20246;-69
2022/03/04 02:01:42;;;;;;;15.60;8.80;;;-3.10;98.70;;;;;;2097890;28;20589;-69
2022/03/04 02:02:44;;;;;;;17.73;9.00;;;-3.10;98.60;;;;;;2098392;28;20554;-71
2022/03/04 02:03:45;;;;;;;16.10;8.57;;;-3.10;98.70;;;;;;2097812;28;20453;-69
2022/03/04 02:04:50;;;;;;;16.27;7.80;;;-3.10;98.90;;;;;;2097563;28;20223;-69
2022/03/04 02:05:50;;;;;;;14.40;7.65;;;-3.10;98.90;;;;;;2097768;28;20202;-69
2022/03/04 02:06:52;;;;;;;17.27;8.23;;;-3.10;98.60;;;;;;2098313;28;20180;-69
2022/03/04 02:07:54;;;;;;;13.00;7.75;;;-3.10;98.70;;;;;;2097807;28;20225;-69
2022/03/04 02:08:54;;;;;;;15.40;8.20;;;-3.10;98.80;;;;;;2089594;28;20192;-69
2022/03/04 02:09:55;;;;;;;13.97;7.70;;;-3.20;98.50;;;;;;2097785;28;20183;-69
2022/03/04 02:10:56;;;;;;;17.57;8.70;;;-3.20;99.00;;;;;;2098308;28;20175;-69
2022/03/04 02:11:57;;;;;;;17.23;8.70;;;-3.20;98.70;;;;;;2098376;28;20180;-69
2022/03/04 02:12:57;;;;;;;14.90;7.90;;;-3.20;99.00;;;;;;2098353;28;20176;-69
2022/03/04 02:13:58;;;;;;;16.17;8.00;;;-3.20;99.00;;;;;;2098371;28;20182;-69
2022/03/04 02:14:59;;;;;;;16.10;8.33;;;-3.30;99.00;;;;;;2098239;28;20176;-70
2022/03/04 02:15:59;;;;;;;13.57;8.30;;;-3.30;99.40;;;;;;2097919;28;20323;-69
2022/03/04 02:17:00;;;;;;;19.97;9.03;;;-3.30;99.40;;;;;;2098350;28;20545;-72
2022/03/04 02:18:13;;;;;;;13.27;7.93;;;-3.30;99.30;;;;;;2097713;28;20199;-69
2022/03/04 02:19:15;;;;;;;13.90;8.05;;;-3.30;99.70;;;;;;2097804;28;20180;-69
2022/03/04 02:20:19;;;;;;;15.95;7.80;;;-3.30;99.70;;;;;;2097795;28;20234;-69
2022/03/04 02:21:23;;;;;;;15.57;8.48;;;-3.20;99.50;;;;;;2089868;28;20181;-69
2022/03/04 02:22:24;;;;;;;16.02;8.00;;;-3.30;99.40;;;;;;2097733;28;20176;-69
2022/03/04 02:23:24;;;;;;;16.15;8.50;;;-3.30;99.80;;;;;;2098201;28;20253;-69
2022/03/04 02:24:28;;;;;;;15.37;9.40;;;-3.20;99.50;;;;;;2096623;28;20188;-69
2022/03/04 02:25:29;;;;;;;16.98;8.05;;;-3.20;99.40;;;;;;2096800;28;21022;-69
2022/03/04 02:26:29;;;;;;;15.20;8.07;;;-3.30;99.50;;;;;;2097702;28;20184;-69
2022/03/04 02:27:30;;;;;;;18.93;8.10;;;-3.30;99.50;;;;;;2098016;28;20182;-69
2022/03/04 02:28:31;;;;;;;17.07;9.27;;;-3.30;99.30;;;;;;2097890;28;20176;-69
2022/03/04 02:29:34;;;;;;;14.70;7.90;;;-3.30;99.60;;;;;;2097578;28;20295;-70
2022/03/04 02:30:36;;;;;;;15.75;8.35;;;-3.30;99.90;;;;;;2097763;28;20191;-69
2022/03/04 02:31:37;;;;;;;16.10;8.75;;;-3.30;99.70;;;;;;2089734;28;20285;-70
2022/03/04 02:32:38;;;;;;;16.80;8.57;;;-3.30;99.90;;;;;;2089490;28;20224;-69
2022/03/04 02:33:39;;;;;;;16.50;8.03;;;-3.30;99.90;;;;;;2089378;28;20200;-70
2022/03/04 02:34:40;;;;;;;13.20;6.90;;;-3.20;99.80;;;;;;2097708;28;20851;-69
2022/03/04 02:35:41;;;;;;;12.80;7.87;;;-3.20;99.70;;;;;;2097492;28;20185;-70
2022/03/04 02:36:44;;;;;;;17.15;9.55;;;-3.20;99.50;;;;;;2097482;28;20497;-69
2022/03/04 02:37:44;;;;;;;15.85;7.95;;;-3.20;99.30;;;;;;2089226;28;20597;-69
2022/03/04 02:38:46;;;;;;;15.40;8.03;;;-3.30;99.40;;;;;;2089544;28;20271;-69
2022/03/04 02:39:46;;;;;;;14.00;8.23;;;-3.30;99.30;;;;;;2097521;28;20180;-69
2022/03/04 02:40:47;;;;;;;18.70;8.50;;;-3.40;99.30;;;;;;2097619;28;20207;-69
2022/03/04 02:41:48;;;;;;;16.43;8.10;;;-3.40;99.70;;;;;;2097359;28;20766;-70
2022/03/04 02:42:48;;;;;;;14.67;8.70;;;-3.40;99.90;;;;;;2098201;28;20670;-69
2022/03/04 02:43:49;;;;;;;17.47;9.20;;;-3.40;99.70;;;;;;2098215;28;20265;-70
2022/03/04 02:44:50;;;;;;;14.80;8.10;;;-3.40;99.40;;;;;;2098187;28;20188;-70
2022/03/04 02:45:51;;;;;;;15.83;7.60;;;-3.40;99.20;;;;;;2097578;28;20207;-69
2022/03/04 02:46:52;;;;;;;14.20;7.35;;;-3.50;99.60;;;;;;2098309;28;20199;-69
2022/03/04 02:47:53;;;;;;;14.90;8.00;;;-3.50;99.90;;;;;;2097948;28;20298;-69
2022/03/04 02:48:53;;;;;;;15.97;7.90;;;-3.50;99.80;;;;;;2097632;28;20184;-70
2022/03/04 02:49:54;;;;;;;16.03;8.03;;;-3.50;99.70;;;;;;2097479;28;20202;-69
2022/03/04 02:50:55;;;;;;;17.47;8.70;;;-3.50;99.60;;;;;;2097535;28;20190;-69
2022/03/04 02:51:55;;;;;;;17.77;8.93;;;-3.50;99.40;;;;;;2097288;28;20226;-69
2022/03/04 02:52:56;;;;;;;14.20;8.70;;;-3.50;99.70;;;;;;2098088;28;20192;-69
2022/03/04 02:53:57;;;;;;;17.07;8.10;;;-3.60;99.90;;;;;;2098124;28;20176;-69
2022/03/04 02:54:58;;;;;;;14.77;8.30;;;-3.60;99.70;;;;;;2098160;28;20182;-68
2022/03/04 02:55:58;;;;;;;18.90;9.30;;;-3.60;99.90;;;;;;2097608;28;20183;-69
2022/03/04 02:56:59;;;;;;;15.07;7.60;;;-3.50;99.90;;;;;;2098088;28;20211;-69
2022/03/04 02:57:59;;;;;;;16.57;7.77;;;-3.50;99.90;;;;;;2097618;28;20904;-68
2022/03/04 02:59:01;;;;;;;14.37;8.40;;;-3.60;99.90;;;;;;2097404;28;20214;-70
2022/03/04 03:00:03;;;;;;;15.23;8.73;;;-3.50;99.90;;;;;;2098113;28;20658;-70
2022/03/04 03:01:05;;;;;;;15.73;7.75;;;-3.50;99.90;;;;;;2097219;28;20249;-68
2022/03/04 03:02:06;;;;;;;17.17;8.45;;;-3.50;99.90;;;;;;2089230;28;20639;-68
2022/03/04 03:03:06;;;;;;;17.73;9.25;;;-3.60;99.90;;;;;;2088980;28;20185;-68
2022/03/04 03:04:07;;;;;;;15.83;9.57;;;-3.60;99.80;;;;;;2097340;28;20542;-69
2022/03/04 03:05:12;;;;;;;17.07;8.77;;;-3.60;99.80;;;;;;2097647;28;20802;-69
2022/03/04 03:06:13;;;;;;;18.20;8.98;;;-3.70;99.90;;;;;;2097393;28;20705;-69
2022/03/04 03:07:13;;;;;;;14.37;7.70;;;-3.70;99.90;;;;;;2097325;28;20180;-69
2022/03/04 03:08:14;;;;;;;13.03;7.60;;;-3.80;99.90;;;;;;2097695;28;20228;-69
2022/03/04 03:09:15;;;;;;;23.30;8.50;;;-3.70;99.90;;;;;;2097251;28;20260;-68
2022/03/04 03:10:15;;;;;;;17.70;7.77;;;-3.70;99.90;;;;;;2098019;28;20183;-69
2022/03/04 03:11:16;;;;;;;15.93;8.03;;;-3.70;99.90;;;;;;2097893;28;20638;-69
2022/03/04 03:12:17;;;;;;;16.93;8.67;;;-3.80;99.90;;;;;;2098103;28;20172;-69
2022/03/04 03:13:17;;;;;;;22.90;9.10;;;-3.70;99.90;;;;;;2097884;28;20647;-69
2022/03/04 03:14:18;;;;;;;17.97;8.70;;;-3.70;99.90;;;;;;2097836;28;20550;-69
2022/03/04 03:15:19;;;;;;;16.80;9.03;;;-3.80;99.90;;;;;;2097265;28;20202;-69
2022/03/04 03:16:20;;;;;;;15.27;7.80;;;-3.80;99.90;;;;;;2097252;28;20249;-70
2022/03/04 03:17:20;;;;;;;15.23;8.43;;;-3.80;99.90;;;;;;2088996;28;20176;-69
2022/03/04 03:18:21;;;;;;;17.73;9.50;;;-3.90;99.90;;;;;;2097408;28;20724;-69
2022/03/04 03:19:22;;;;;;;19.37;8.97;;;-3.90;99.90;;;;;;2105350;28;20179;-69
2022/03/04 03:20:23;;;;;;;15.60;9.23;;;-3.90;99.90;;;;;;2097837;28;20649;-69
2022/03/04 03:21:23;;;;;;;17.93;7.90;;;-3.90;99.90;;;;;;2095664;28;20213;-69
2022/03/04 03:22:24;;;;;;;17.23;9.07;;;-3.90;99.90;;;;;;2097230;28;20519;-69
2022/03/04 03:23:25;;;;;;;15.50;8.63;;;-3.90;99.90;;;;;;2097706;28;20255;-69
2022/03/04 03:24:25;;;;;;;17.17;9.30;;;-4.00;99.90;;;;;;2097682;28;20172;-69
2022/03/04 03:25:26;;;;;;;16.47;8.47;;;-3.90;99.90;;;;;;2096313;28;20600;-68
2022/03/04 03:26:26;;;;;;;14.47;8.37;;;-3.80;99.90;;;;;;2097167;28;20184;-69
2022/03/04 03:27:27;;;;;;;18.03;8.83;;;-3.80;99.90;;;;;;2097632;28;20699;-69
2022/03/04 03:28:28;;;;;;;17.70;9.53;;;-3.90;99.90;;;;;;2098050;28;20559;-69
2022/03/04 03:29:28;;;;;;;16.27;8.53;;;-3.80;99.90;;;;;;2097581;28;20669;-69
2022/03/04 03:30:30;;;;;;;14.47;8.37;;;-3.80;99.90;;;;;;2097747;28;20553;-69
2022/03/04 03:31:31;;;;;;;15.93;8.13;;;-3.80;99.90;;;;;;2096992;28;20171;-69
2022/03/04 03:32:32;;;;;;;11.80;7.33;;;-3.80;99.90;;;;;;2097143;28;20199;-69
2022/03/04 03:33:32;;;;;;;16.40;8.20;;;-3.70;99.90;;;;;;2097098;28;20233;-69
2022/03/04 03:34:33;;;;;;;14.20;7.80;;;-3.70;99.90;;;;;;2088881;28;20176;-69
2022/03/04 03:35:34;;;;;;;16.40;8.80;;;-3.70;99.90;;;;;;2088024;28;20173;-69
2022/03/04 03:36:35;;;;;;;18.33;9.00;;;-3.70;99.90;;;;;;2097074;28;20188;-69
2022/03/04 03:37:39;;;;;;;13.50;7.80;;;-3.80;99.90;;;;;;2097813;28;20195;-69
2022/03/04 03:38:39;;;;;;;14.88;8.07;;;-3.80;99.90;;;;;;2097298;28;20181;-69
2022/03/04 03:39:40;;;;;;;15.13;8.70;;;-3.80;99.90;;;;;;2096666;28;20184;-69
2022/03/04 03:40:41;;;;;;;16.13;8.23;;;-3.80;99.90;;;;;;2097574;28;20555;-70
2022/03/04 03:41:42;;;;;;;14.83;8.63;;;-3.90;99.90;;;;;;2097750;28;20176;-69
2022/03/04 03:42:43;;;;;;;14.63;7.87;;;-3.90;99.90;;;;;;2096883;28;20182;-69
2022/03/04 03:43:43;;;;;;;16.90;9.55;;;-3.90;99.90;;;;;;2088883;28;20291;-69
2022/03/04 03:44:44;;;;;;;13.20;7.63;;;-3.90;99.90;;;;;;2096962;28;20183;-69
2022/03/04 03:45:45;;;;;;;15.90;8.37;;;-3.90;99.90;;;;;;2097109;28;20597;-69
2022/03/04 03:46:45;;;;;;;16.90;8.17;;;-3.90;99.90;;;;;;2097605;28;20608;-69
2022/03/04 03:47:46;;;;;;;16.93;8.33;;;-4.00;99.90;;;;;;2097670;28;20199;-69
2022/03/04 03:48:47;;;;;;;14.67;8.27;;;-4.00;99.90;;;;;;2096951;28;20175;-69
2022/03/04 03:49:47;;;;;;;17.93;8.57;;;-4.00;99.90;;;;;;2097090;28;20180;-69
2022/03/04 03:50:48;;;;;;;17.37;8.10;;;-4.00;99.90;;;;;;2096862;28;20179;-69
2022/03/04 03:51:49;;;;;;;14.90;8.47;;;-4.00;99.90;;;;;;2097080;28;20247;-69
2022/03/04 03:52:50;;;;;;;14.82;8.23;;;-4.10;99.90;;;;;;2096879;28;20188;-69
2022/03/04 03:53:51;;;;;;;18.23;9.03;;;-4.10;99.90;;;;;;2097071;28;20701;-69
2022/03/04 03:54:52;;;;;;;17.53;8.77;;;-4.00;99.90;;;;;;2097498;28;20182;-69
2022/03/04 03:55:52;;;;;;;15.03;7.73;;;-4.10;99.90;;;;;;2097134;28;20180;-69
2022/03/04 03:56:53;;;;;;;15.40;8.87;;;-4.10;99.90;;;;;;2097336;28;20179;-69
2022/03/04 03:57:54;;;;;;;15.03;8.23;;;-4.10;99.90;;;;;;2097085;28;20714;-69
2022/03/04 03:58:55;;;;;;;14.35;7.40;;;-4.10;99.90;;;;;;2096880;28;20198;-70
2022/03/04 03:59:55;;;;;;;15.17;8.03;;;-4.10;99.90;;;;;;2097035;28;20301;-69
2022/03/04 04:00:56;;;;;;;21.07;9.50;;;-4.10;99.90;;;;;;2096802;28;20564;-69
2022/03/04 04:01:58;;;;;;;20.67;8.73;;;-4.10;99.90;;;;;;2097296;28;20175;-69
2022/03/04 04:02:59;;;;;;;13.88;7.50;;;-4.10;99.90;;;;;;2096788;28;20211;-69
2022/03/04 04:04:00;;;;;;;14.77;8.43;;;-4.10;99.90;;;;;;2097008;28;20248;-69
2022/03/04 04:05:01;;;;;;;14.93;8.07;;;-4.20;99.90;;;;;;2097360;28;20236;-69
2022/03/04 04:06:02;;;;;;;15.37;8.83;;;-4.20;99.90;;;;;;2096826;28;20258;-69
2022/03/04 04:07:09;;;;;;;14.25;7.75;;;-4.20;99.90;;;;;;2096660;28;20186;-69
2022/03/04 04:08:10;;;;;;;17.52;8.73;;;-4.20;99.90;;;;;;2096961;28;20202;-69
2022/03/04 04:09:11;;;;;;;16.00;8.37;;;-4.30;99.90;;;;;;2088398;28;20667;-69
2022/03/04 04:10:12;;;;;;;17.17;8.73;;;-4.30;99.90;;;;;;2088710;28;20173;-68
2022/03/04 04:11:13;;;;;;;15.83;8.40;;;-4.30;99.90;;;;;;2097305;28;20180;-69
2022/03/04 04:12:13;;;;;;;16.53;9.20;;;-4.30;99.90;;;;;;2097553;28;20184;-69
2022/03/04 04:13:14;;;;;;;14.27;7.77;;;-4.30;99.90;;;;;;2097391;28;20237;-69
2022/03/04 04:14:15;;;;;;;17.30;9.00;;;-4.30;99.90;;;;;;2096765;28;20182;-69
2022/03/04 04:15:16;;;;;;;15.45;8.40;;;-4.30;99.90;;;;;;2096110;28;20643;-69
2022/03/04 04:16:17;;;;;;;14.87;7.77;;;-4.30;99.90;;;;;;2097512;28;20182;-68
2022/03/04 04:17:17;;;;;;;15.07;8.50;;;-4.30;99.90;;;;;;2097390;28;20176;-68
2022/03/04 04:18:18;;;;;;;15.33;7.37;;;-4.40;99.90;;;;;;2097548;28;20663;-68
2022/03/04 04:19:20;;;;;;;18.77;9.10;;;-4.40;99.90;;;;;;2097382;28;20587;-68
2022/03/04 04:20:21;;;;;;;15.32;8.30;;;-4.40;99.90;;;;;;2097299;28;20266;-68
2022/03/04 04:21:22;;;;;;;15.37;7.83;;;-4.30;99.90;;;;;;2097332;28;20184;-68
2022/03/04 04:22:22;;;;;;;16.27;8.48;;;-4.30;99.90;;;;;;2097324;28;20713;-68
2022/03/04 04:23:23;;;;;;;17.87;9.30;;;-4.30;99.90;;;;;;2096645;28;20183;-68
2022/03/04 04:24:24;;;;;;;16.30;8.90;;;-4.30;99.90;;;;;;2088433;28;20176;-68
2022/03/04 04:25:25;;;;;;;15.23;8.27;;;-4.20;99.90;;;;;;2096193;28;20234;-68
2022/03/04 04:26:26;;;;;;;15.53;8.00;;;-4.20;99.90;;;;;;2097193;28;20198;-68
2022/03/04 04:27:26;;;;;;;18.03;8.23;;;-4.20;99.90;;;;;;2097320;28;20654;-68
2022/03/04 04:28:27;;;;;;;14.60;8.30;;;-4.20;99.90;;;;;;2097254;28;20635;-68
2022/03/04 04:29:28;;;;;;;16.60;8.43;;;-4.20;99.90;;;;;;2097528;28;20221;-69
2022/03/04 04:30:30;;;;;;;16.03;8.43;;;-4.20;99.90;;;;;;2096662;28;20578;-69
2022/03/04 04:31:32;;;;;;;19.65;8.32;;;-4.20;99.90;;;;;;2087810;28;20188;-69
2022/03/04 04:32:33;;;;;;;20.42;8.90;;;-4.30;99.90;;;;;;2090362;28;20600;-69
2022/03/04 04:33:34;;;;;;;18.17;9.13;;;-4.30;99.90;;;;;;2088983;28;20180;-69
2022/03/04 04:34:34;;;;;;;17.43;9.37;;;-4.30;99.90;;;;;;2088802;28;20635;-69
2022/03/04 04:35:35;;;;;;;16.00;8.67;;;-4.30;99.90;;;;;;2088376;28;20285;-69
2022/03/04 04:36:36;;;;;;;16.33;8.73;;;-4.30;99.90;;;;;;2088821;28;20187;-68
2022/03/04 04:37:37;;;;;;;19.37;8.77;;;-4.40;99.90;;;;;;2088986;28;20180;-69
2022/03/04 04:38:38;;;;;;;15.37;8.07;;;-4.40;99.90;;;;;;2088435;28;20188;-69
2022/03/04 04:39:38;;;;;;;17.20;8.10;;;-4.40;99.90;;;;;;2080203;28;20570;-69
2022/03/04 04:40:39;;;;;;;14.73;7.70;;;-4.40;99.90;;;;;;2080003;28;20824;-69
2022/03/04 04:41:40;;;;;;;17.27;8.47;;;-4.40;99.90;;;;;;2088270;28;20176;-69
2022/03/04 04:42:40;;;;;;;13.40;7.67;;;-4.40;99.90;;;;;;2088263;28;20242;-69
2022/03/04 04:43:41;;;;;;;16.97;8.57;;;-4.50;99.90;;;;;;2088423;28;20270;-69
2022/03/04 04:44:42;;;;;;;14.57;8.63;;;-4.50;99.90;;;;;;2088758;28;20195;-69
2022/03/04 04:45:43;;;;;;;14.53;7.87;;;-4.50;99.90;;;;;;2088329;28;20246;-69
2022/03/04 04:46:43;;;;;;;18.37;7.90;;;-4.50;99.90;;;;;;2088821;28;20700;-69
2022/03/04 04:47:44;;;;;;;16.40;8.90;;;-4.50;99.90;;;;;;2089091;28;20546;-69
2022/03/04 04:48:45;;;;;;;16.17;8.10;;;-4.50;99.90;;;;;;2089151;28;20180;-69
2022/03/04 04:49:46;;;;;;;17.17;9.10;;;-4.50;99.90;;;;;;2088934;28;20192;-69
2022/03/04 04:50:46;;;;;;;15.90;7.77;;;-4.50;99.90;;;;;;2088044;28;20189;-68
2022/03/04 04:51:47;;;;;;;15.50;7.73;;;-4.60;99.90;;;;;;2088965;28;20607;-70
2022/03/04 04:52:48;;;;;;;17.27;8.63;;;-4.60;99.90;;;;;;2089131;28;20184;-69
2022/03/04 04:53:50;;;;;;;16.50;9.47;;;-4.60;99.90;;;;;;2089399;28;20184;-69
2022/03/04 04:54:51;;;;;;;17.85;8.82;;;-4.60;99.90;;;;;;2089021;28;20187;-69
2022/03/04 04:55:51;;;;;;;16.87;8.50;;;-4.70;99.90;;;;;;2087895;28;20210;-69
2022/03/04 04:56:52;;;;;;;17.97;9.03;;;-4.70;99.90;;;;;;2088327;28;20268;-69
2022/03/04 04:57:53;;;;;;;15.40;8.77;;;-4.60;99.90;;;;;;2089241;28;20250;-69
2022/03/04 04:58:54;;;;;;;17.60;8.73;;;-4.60;99.90;;;;;;2089157;28;20183;-68
2022/03/04 04:59:55;;;;;;;15.80;8.27;;;-4.60;99.90;;;;;;2089067;28;20183;-69
2022/03/04 05:00:56;;;;;;;16.10;7.73;;;-4.60;99.90;;;;;;2089118;28;20191;-68
2022/03/04 05:01:56;;;;;;;15.40;9.07;;;-4.60;99.90;;;;;;2088310;28;20180;-68
2022/03/04 05:02:57;;;;;;;15.38;7.60;;;-4.70;99.90;;;;;;2088509;28;20709;-68
2022/03/04 05:03:58;;;;;;;15.73;8.03;;;-4.70;99.90;;;;;;2089055;28;20271;-68
2022/03/04 05:04:59;;;;;;;18.67;9.17;;;-4.70;99.90;;;;;;2096615;28;20195;-68
2022/03/04 05:06:00;;;;;;;15.98;8.15;;;-4.70;99.90;;;;;;2095957;28;20690;-69
2022/03/04 05:07:02;;;;;;;16.23;8.13;;;-4.70;99.90;;;;;;2090229;28;20263;-69
2022/03/04 05:08:03;;;;;;;13.98;7.45;;;-4.70;99.90;;;;;;2089139;28;20741;-69
2022/03/04 05:09:04;;;;;;;13.68;7.25;;;-4.70;99.90;;;;;;2089254;28;20278;-69
2022/03/04 05:10:06;;;;;;;17.30;8.20;;;-4.70;99.90;;;;;;2088513;28;20553;-69
2022/03/04 05:11:06;;;;;;;16.02;8.63;;;-4.70;99.90;;;;;;2080571;28;20179;-69
2022/03/04 05:12:08;;;;;;;16.23;8.43;;;-4.70;99.90;;;;;;2088373;28;20706;-69
2022/03/04 05:13:09;;;;;;;14.15;8.43;;;-4.70;99.90;;;;;;2088543;28;20185;-70